sensor_id;sensor_type;location;lat;lon;timestamp;temperature;humidity
55648;DHT22;45266;48.756;9.246;2022-09-13T00:00:28;12.70;99.90
55648;DHT22;45266;48.756;9.246;2022-09-13T00:01:29;12.70;99.90
55648;DHT22;45266;48.756;9.246;2022-09-13T00:02:31;12.70;99.90
55648;DHT22;45266;48.756;9.246;2022-09-13T00:03:33;12.70;99.90
55648;DHT22;45266;48.756;9.246;2022-09-13T00:04:35;12.70;99.90
55648;DHT22;45266;48.756;9.246;2022-09-13T00:05:37;12.70;99.90
55648;DHT22;45266;48.756;9.246;2022-09-13T00:06:39;12.70;99.90
55648;DHT22;45266;48.756;9.246;2022-09-13T00:07:41;12.70;99.90
55648;DHT22;45266;48.756;9.246;2022-09-13T00:08:43;12.70;99.90
55648;DHT22;45266;48.756;9.246;2022-09-13T00:09:45;12.70;99.90
55648;DHT22;45266;48.756;9.246;2022-09-13T00:10:47;12.70;99.90
55648;DHT22;45266;48.756;9.246;2022-09-13T00:11:50;12.70;99.90
55648;DHT22;45266;48.756;9.246;2022-09-13T00:12:53;12.70;99.90
55648;DHT22;45266;48.756;9.246;2022-09-13T00:13:56;12.70;99.90
55648;DHT22;45266;48.756;9.246;2022-09-13T00:14:58;12.60;99.90
55648;DHT22;45266;48.756;9.246;2022-09-13T00:15:59;12.60;99.90
55648;DHT22;45266;48.756;9.246;2022-09-13T00:17:04;12.60;99.90
55648;DHT22;45266;48.756;9.246;2022-09-13T00:18:05;12.60;99.90
55648;DHT22;45266;48.756;9.246;2022-09-13T00:19:07;12.60;99.90
55648;DHT22;45266;48.756;9.246;2022-09-13T00:20:09;12.60;99.90
55648;DHT22;45266;48.756;9.246;2022-09-13T00:21:13;12.60;99.90
55648;DHT22;45266;48.756;9.246;2022-09-13T00:22:15;12.50;99.90
55648;DHT22;45266;48.756;9.246;2022-09-13T00:23:17;12.50;99.90
55648;DHT22;45266;48.756;9.246;2022-09-13T00:24:19;12.50;99.90
55648;DHT22;45266;48.756;9.246;2022-09-13T00:25:20;12.50;99.90
55648;DHT22;45266;48.756;9.246;2022-09-13T00:26:25;12.50;99.90
55648;DHT22;45266;48.756;9.246;2022-09-13T00:27:27;12.50;99.90
55648;DHT22;45266;48.756;9.246;2022-09-13T00:28:29;12.50;99.90
55648;DHT22;45266;48.756;9.246;2022-09-13T00:29:30;12.50;99.90
55648;DHT22;45266;48.756;9.246;2022-09-13T00:30:32;12.50;99.90
55648;DHT22;45266;48.756;9.246;2022-09-13T00:31:34;12.50;99.90
55648;DHT22;45266;48.756;9.246;2022-09-13T00:32:36;12.50;99.90
55648;DHT22;45266;48.756;9.246;2022-09-13T00:33:39;12.50;99.90
55648;DHT22;45266;48.756;9.246;2022-09-13T00:34:40;12.50;99.90
55648;DHT22;45266;48.756;9.246;2022-09-13T00:35:42;12.50;99.90
55648;DHT22;45266;48.756;9.246;2022-09-13T00:36:44;12.50;99.90
55648;DHT22;45266;48.756;9.246;2022-09-13T00:37:46;12.60;99.90
55648;DHT22;45266;48.756;9.246;2022-09-13T00:38:47;12.60;99.90
55648;DHT22;45266;48.756;9.246;2022-09-13T00:39:49;12.60;99.90
55648;DHT22;45266;48.756;9.246;2022-09-13T00:40:51;12.70;99.90
55648;DHT22;45266;48.756;9.246;2022-09-13T00:41:53;12.50;99.90
55648;DHT22;45266;48.756;9.246;2022-09-13T00:42:55;12.50;99.90
55648;DHT22;45266;48.756;9.246;2022-09-13T00:43:59;12.50;99.90
55648;DHT22;45266;48.756;9.246;2022-09-13T00:45:14;12.50;99.90
55648;DHT22;45266;48.756;9.246;2022-09-13T00:46:42;12.50;99.90
55648;DHT22;45266;48.756;9.246;2022-09-13T00:47:50;12.50;99.90
55648;DHT22;45266;48.756;9.246;2022-09-13T00:48:58;12.50;99.90
55648;DHT22;45266;48.756;9.246;2022-09-13T00:50:19;12.50;99.90
55648;DHT22;45266;48.756;9.246;2022-09-13T00:51:21;12.50;99.90
55648;DHT22;45266;48.756;9.246;2022-09-13T00:52:26;12.50;99.90
55648;DHT22;45266;48.756;9.246;2022-09-13T00:53:35;12.40;99.90
55648;DHT22;45266;48.756;9.246;2022-09-13T00:54:43;12.40;99.90
55648;DHT22;45266;48.756;9.246;2022-09-13T00:55:54;12.40;99.90
55648;DHT22;45266;48.756;9.246;2022-09-13T00:56:59;12.40;99.90
55648;DHT22;45266;48.756;9.246;2022-09-13T00:58:09;12.50;99.90
55648;DHT22;45266;48.756;9.246;2022-09-13T00:59:18;12.40;99.90
55648;DHT22;45266;48.756;9.246;2022-09-13T01:00:22;12.40;99.90
55648;DHT22;45266;48.756;9.246;2022-09-13T01:01:32;12.30;99.90
55648;DHT22;45266;48.756;9.246;2022-09-13T01:02:35;12.40;99.90
55648;DHT22;45266;48.756;9.246;2022-09-13T01:03:38;12.40;99.90
55648;DHT22;45266;48.756;9.246;2022-09-13T01:04:42;12.40;99.90
55648;DHT22;45266;48.756;9.246;2022-09-13T01:05:55;12.40;99.90
55648;DHT22;45266;48.756;9.246;2022-09-13T01:07:02;12.40;99.90
55648;DHT22;45266;48.756;9.246;2022-09-13T01:08:06;12.40;99.90
55648;DHT22;45266;48.756;9.246;2022-09-13T01:09:13;12.40;99.90
55648;DHT22;45266;48.756;9.246;2022-09-13T01:10:16;12.30;99.90
55648;DHT22;45266;48.756;9.246;2022-09-13T01:11:28;12.30;99.90
55648;DHT22;45266;48.756;9.246;2022-09-13T01:12:36;12.40;99.90
55648;DHT22;45266;48.756;9.246;2022-09-13T01:13:41;12.30;99.90
55648;DHT22;45266;48.756;9.246;2022-09-13T01:14:44;12.30;99.90
55648;DHT22;45266;48.756;9.246;2022-09-13T01:15:47;12.40;99.90
55648;DHT22;45266;48.756;9.246;2022-09-13T01:16:49;12.30;99.90
55648;DHT22;45266;48.756;9.246;2022-09-13T01:17:51;12.30;99.90
55648;DHT22;45266;48.756;9.246;2022-09-13T01:18:54;12.30;99.90
55648;DHT22;45266;48.756;9.246;2022-09-13T01:19:56;12.30;99.90
55648;DHT22;45266;48.756;9.246;2022-09-13T01:24:19;12.30;99.90
55648;DHT22;45266;48.756;9.246;2022-09-13T01:30:48;12.20;99.90
55648;DHT22;45266;48.756;9.246;2022-09-13T01:33:38;12.20;99.90
55648;DHT22;45266;48.756;9.246;2022-09-13T01:36:23;12.20;99.90
55648;DHT22;45266;48.756;9.246;2022-09-13T01:38:41;12.20;99.90
55648;DHT22;45266;48.756;9.246;2022-09-13T01:39:30;12.20;99.90
55648;DHT22;45266;48.756;9.246;2022-09-13T01:41:03;12.20;99.90
55648;DHT22;45266;48.756;9.246;2022-09-13T01:42:25;12.10;99.90
55648;DHT22;45266;48.756;9.246;2022-09-13T01:43:57;12.10;99.90
55648;DHT22;45266;48.756;9.246;2022-09-13T01:45:28;12.10;99.90
55648;DHT22;45266;48.756;9.246;2022-09-13T01:46:50;12.10;99.90
55648;DHT22;45266;48.756;9.246;2022-09-13T01:47:56;12.20;99.90
55648;DHT22;45266;48.756;9.246;2022-09-13T01:49:11;12.10;99.90
55648;DHT22;45266;48.756;9.246;2022-09-13T01:50:26;12.10;99.90
55648;DHT22;45266;48.756;9.246;2022-09-13T01:51:52;12.10;99.90
55648;DHT22;45266;48.756;9.246;2022-09-13T01:52:59;12.10;99.90
55648;DHT22;45266;48.756;9.246;2022-09-13T01:55:31;12.10;99.90
55648;DHT22;45266;48.756;9.246;2022-09-13T01:56:48;12.00;99.90
55648;DHT22;45266;48.756;9.246;2022-09-13T01:59:53;12.00;99.90
55648;DHT22;45266;48.756;9.246;2022-09-13T02:01:05;12.00;99.90
55648;DHT22;45266;48.756;9.246;2022-09-13T02:03:54;12.00;99.90
55648;DHT22;45266;48.756;9.246;2022-09-13T02:05:12;12.00;99.90
55648;DHT22;45266;48.756;9.246;2022-09-13T02:06:20;12.00;99.90
55648;DHT22;45266;48.756;9.246;2022-09-13T02:07:35;12.00;99.90
55648;DHT22;45266;48.756;9.246;2022-09-13T02:08:50;12.00;99.90
55648;DHT22;45266;48.756;9.246;2022-09-13T02:10:09;12.00;99.90
55648;DHT22;45266;48.756;9.246;2022-09-13T02:11:15;11.90;99.90
55648;DHT22;45266;48.756;9.246;2022-09-13T02:12:23;11.90;99.90
55648;DHT22;45266;48.756;9.246;2022-09-13T02:13:30;11.90;99.90
55648;DHT22;45266;48.756;9.246;2022-09-13T02:14:37;12.00;99.90
55648;DHT22;45266;48.756;9.246;2022-09-13T02:15:43;11.90;99.90
55648;DHT22;45266;48.756;9.246;2022-09-13T02:16:56;12.00;99.90
55648;DHT22;45266;48.756;9.246;2022-09-13T02:18:09;11.90;99.90
55648;DHT22;45266;48.756;9.246;2022-09-13T02:19:50;11.90;99.90
55648;DHT22;45266;48.756;9.246;2022-09-13T02:20:54;11.90;99.90
55648;DHT22;45266;48.756;9.246;2022-09-13T02:21:59;11.90;99.90
55648;DHT22;45266;48.756;9.246;2022-09-13T02:23:11;11.90;99.90
55648;DHT22;45266;48.756;9.246;2022-09-13T02:24:20;11.80;99.90
55648;DHT22;45266;48.756;9.246;2022-09-13T02:25:25;11.80;99.90
55648;DHT22;45266;48.756;9.246;2022-09-13T02:26:29;11.90;99.90
55648;DHT22;45266;48.756;9.246;2022-09-13T02:27:33;11.80;99.90
55648;DHT22;45266;48.756;9.246;2022-09-13T02:28:41;11.80;99.90
55648;DHT22;45266;48.756;9.246;2022-09-13T02:29:46;11.80;99.90
55648;DHT22;45266;48.756;9.246;2022-09-13T02:30:52;11.80;99.90
55648;DHT22;45266;48.756;9.246;2022-09-13T02:32:01;11.80;99.90
55648;DHT22;45266;48.756;9.246;2022-09-13T02:33:11;11.80;99.90
55648;DHT22;45266;48.756;9.246;2022-09-13T02:34:19;11.80;99.90
55648;DHT22;45266;48.756;9.246;2022-09-13T02:36:54;11.80;99.90
55648;DHT22;45266;48.756;9.246;2022-09-13T02:38:01;11.80;99.90
55648;DHT22;45266;48.756;9.246;2022-09-13T02:39:07;11.80;99.90
55648;DHT22;45266;48.756;9.246;2022-09-13T02:40:15;11.80;99.90
55648;DHT22;45266;48.756;9.246;2022-09-13T02:41:29;11.80;99.90
55648;DHT22;45266;48.756;9.246;2022-09-13T02:42:43;11.80;99.90
55648;DHT22;45266;48.756;9.246;2022-09-13T02:43:55;11.80;99.90
55648;DHT22;45266;48.756;9.246;2022-09-13T02:44:58;11.80;99.90
55648;DHT22;45266;48.756;9.246;2022-09-13T02:47:16;11.80;99.90
55648;DHT22;45266;48.756;9.246;2022-09-13T02:48:53;11.80;99.90
55648;DHT22;45266;48.756;9.246;2022-09-13T02:54:42;11.70;99.90
55648;DHT22;45266;48.756;9.246;2022-09-13T02:55:59;11.70;99.90
55648;DHT22;45266;48.756;9.246;2022-09-13T02:57:09;11.70;99.90
55648;DHT22;45266;48.756;9.246;2022-09-13T02:58:33;11.70;99.90
55648;DHT22;45266;48.756;9.246;2022-09-13T02:59:37;11.70;99.90
55648;DHT22;45266;48.756;9.246;2022-09-13T03:00:40;11.60;99.90
55648;DHT22;45266;48.756;9.246;2022-09-13T03:01:46;11.60;99.90
55648;DHT22;45266;48.756;9.246;2022-09-13T03:02:50;11.60;99.90
55648;DHT22;45266;48.756;9.246;2022-09-13T03:03:53;11.60;99.90
55648;DHT22;45266;48.756;9.246;2022-09-13T03:04:55;11.60;99.90
55648;DHT22;45266;48.756;9.246;2022-09-13T03:05:57;11.60;99.90
55648;DHT22;45266;48.756;9.246;2022-09-13T03:07:00;11.60;99.90
55648;DHT22;45266;48.756;9.246;2022-09-13T03:08:06;11.50;99.90
55648;DHT22;45266;48.756;9.246;2022-09-13T03:09:11;11.50;99.90
55648;DHT22;45266;48.756;9.246;2022-09-13T03:10:14;11.50;99.90
55648;DHT22;45266;48.756;9.246;2022-09-13T03:12:50;11.50;99.90
55648;DHT22;45266;48.756;9.246;2022-09-13T03:14:17;11.60;99.90
55648;DHT22;45266;48.756;9.246;2022-09-13T03:19:07;11.50;99.90
55648;DHT22;45266;48.756;9.246;2022-09-13T03:20:42;11.50;99.90
55648;DHT22;45266;48.756;9.246;2022-09-13T03:21:56;11.60;99.90
55648;DHT22;45266;48.756;9.246;2022-09-13T03:23:29;11.50;99.90
55648;DHT22;45266;48.756;9.246;2022-09-13T03:26:20;11.50;99.90
55648;DHT22;45266;48.756;9.246;2022-09-13T03:27:33;11.50;99.90
55648;DHT22;45266;48.756;9.246;2022-09-13T03:30:37;11.50;99.90
55648;DHT22;45266;48.756;9.246;2022-09-13T03:32:01;11.50;99.90
55648;DHT22;45266;48.756;9.246;2022-09-13T03:36:35;11.50;99.90
55648;DHT22;45266;48.756;9.246;2022-09-13T03:37:57;11.50;99.90
55648;DHT22;45266;48.756;9.246;2022-09-13T03:39:13;11.50;99.90
55648;DHT22;45266;48.756;9.246;2022-09-13T03:40:49;11.50;99.90
55648;DHT22;45266;48.756;9.246;2022-09-13T03:41:57;11.50;99.90
55648;DHT22;45266;48.756;9.246;2022-09-13T03:43:43;11.50;99.90
55648;DHT22;45266;48.756;9.246;2022-09-13T03:44:55;11.50;99.90
55648;DHT22;45266;48.756;9.246;2022-09-13T03:46:09;11.50;99.90
55648;DHT22;45266;48.756;9.246;2022-09-13T03:47:24;11.50;99.90
55648;DHT22;45266;48.756;9.246;2022-09-13T03:48:28;11.50;99.90
55648;DHT22;45266;48.756;9.246;2022-09-13T03:49:43;11.50;99.90
55648;DHT22;45266;48.756;9.246;2022-09-13T03:50:47;11.50;99.90
55648;DHT22;45266;48.756;9.246;2022-09-13T03:51:52;11.50;99.90
55648;DHT22;45266;48.756;9.246;2022-09-13T03:53:21;11.50;99.90
55648;DHT22;45266;48.756;9.246;2022-09-13T03:54:30;11.50;99.90
55648;DHT22;45266;48.756;9.246;2022-09-13T03:55:41;11.50;99.90
55648;DHT22;45266;48.756;9.246;2022-09-13T03:57:08;11.50;99.90
55648;DHT22;45266;48.756;9.246;2022-09-13T03:58:16;11.40;99.90
55648;DHT22;45266;48.756;9.246;2022-09-13T03:59:21;11.40;99.90
55648;DHT22;45266;48.756;9.246;2022-09-13T04:00:29;11.40;99.90
55648;DHT22;45266;48.756;9.246;2022-09-13T04:01:37;11.40;99.90
55648;DHT22;45266;48.756;9.246;2022-09-13T04:02:47;11.40;99.90
55648;DHT22;45266;48.756;9.246;2022-09-13T04:03:52;11.40;99.90
55648;DHT22;45266;48.756;9.246;2022-09-13T04:04:57;11.40;99.90
55648;DHT22;45266;48.756;9.246;2022-09-13T04:06:03;11.30;99.90
55648;DHT22;45266;48.756;9.246;2022-09-13T04:07:17;11.30;99.90
55648;DHT22;45266;48.756;9.246;2022-09-13T04:08:24;11.30;99.90
55648;DHT22;45266;48.756;9.246;2022-09-13T04:09:26;11.30;99.90
55648;DHT22;45266;48.756;9.246;2022-09-13T04:10:35;11.30;99.90
55648;DHT22;45266;48.756;9.246;2022-09-13T04:11:39;11.30;99.90
55648;DHT22;45266;48.756;9.246;2022-09-13T04:12:44;11.30;99.90
55648;DHT22;45266;48.756;9.246;2022-09-13T04:13:55;11.30;99.90
55648;DHT22;45266;48.756;9.246;2022-09-13T04:15:06;11.30;99.90
55648;DHT22;45266;48.756;9.246;2022-09-13T04:16:09;11.30;99.90
55648;DHT22;45266;48.756;9.246;2022-09-13T04:17:15;11.30;99.90
55648;DHT22;45266;48.756;9.246;2022-09-13T04:18:18;11.30;99.90
55648;DHT22;45266;48.756;9.246;2022-09-13T04:21:25;11.30;99.90
55648;DHT22;45266;48.756;9.246;2022-09-13T04:22:28;11.30;99.90
55648;DHT22;45266;48.756;9.246;2022-09-13T04:23:35;11.30;99.90
55648;DHT22;45266;48.756;9.246;2022-09-13T04:24:37;11.20;99.90
55648;DHT22;45266;48.756;9.246;2022-09-13T04:25:43;11.30;99.90
55648;DHT22;45266;48.756;9.246;2022-09-13T04:26:50;11.20;99.90
55648;DHT22;45266;48.756;9.246;2022-09-13T04:28:00;11.20;99.90
55648;DHT22;45266;48.756;9.246;2022-09-13T04:29:10;11.30;99.90
55648;DHT22;45266;48.756;9.246;2022-09-13T04:30:25;11.30;99.90
55648;DHT22;45266;48.756;9.246;2022-09-13T04:31:33;11.30;99.90
55648;DHT22;45266;48.756;9.246;2022-09-13T04:32:42;11.30;99.90
55648;DHT22;45266;48.756;9.246;2022-09-13T04:33:49;11.30;99.90
55648;DHT22;45266;48.756;9.246;2022-09-13T04:34:56;11.30;99.90
55648;DHT22;45266;48.756;9.246;2022-09-13T04:36:00;11.30;99.90
55648;DHT22;45266;48.756;9.246;2022-09-13T04:37:03;11.30;99.90
55648;DHT22;45266;48.756;9.246;2022-09-13T04:38:09;11.30;99.90
55648;DHT22;45266;48.756;9.246;2022-09-13T04:39:15;11.30;99.90
55648;DHT22;45266;48.756;9.246;2022-09-13T04:40:50;11.30;99.90
55648;DHT22;45266;48.756;9.246;2022-09-13T04:41:56;11.30;99.90
55648;DHT22;45266;48.756;9.246;2022-09-13T04:43:07;11.30;99.90
55648;DHT22;45266;48.756;9.246;2022-09-13T04:44:14;11.30;99.90
55648;DHT22;45266;48.756;9.246;2022-09-13T04:45:18;11.30;99.90
55648;DHT22;45266;48.756;9.246;2022-09-13T04:46:21;11.30;99.90
55648;DHT22;45266;48.756;9.246;2022-09-13T04:47:25;11.30;99.90
55648;DHT22;45266;48.756;9.246;2022-09-13T04:48:35;11.30;99.90
55648;DHT22;45266;48.756;9.246;2022-09-13T04:49:45;11.30;99.90
55648;DHT22;45266;48.756;9.246;2022-09-13T04:51:01;11.40;99.90
55648;DHT22;45266;48.756;9.246;2022-09-13T04:52:06;11.40;99.90
55648;DHT22;45266;48.756;9.246;2022-09-13T04:53:10;11.40;99.90
55648;DHT22;45266;48.756;9.246;2022-09-13T04:54:15;11.40;99.90
55648;DHT22;45266;48.756;9.246;2022-09-13T04:55:24;11.40;99.90
55648;DHT22;45266;48.756;9.246;2022-09-13T04:56:31;11.40;99.90
55648;DHT22;45266;48.756;9.246;2022-09-13T04:57:37;11.50;99.90
55648;DHT22;45266;48.756;9.246;2022-09-13T04:58:51;11.50;99.90
55648;DHT22;45266;48.756;9.246;2022-09-13T04:59:54;11.50;99.90
55648;DHT22;45266;48.756;9.246;2022-09-13T05:01:03;11.50;99.90
55648;DHT22;45266;48.756;9.246;2022-09-13T05:02:08;11.50;99.90
55648;DHT22;45266;48.756;9.246;2022-09-13T05:03:21;11.50;99.90
55648;DHT22;45266;48.756;9.246;2022-09-13T05:04:35;11.50;99.90
55648;DHT22;45266;48.756;9.246;2022-09-13T05:05:54;11.50;99.90
55648;DHT22;45266;48.756;9.246;2022-09-13T05:07:02;11.50;99.90
55648;DHT22;45266;48.756;9.246;2022-09-13T05:08:08;11.50;99.90
55648;DHT22;45266;48.756;9.246;2022-09-13T05:09:12;11.60;99.90
55648;DHT22;45266;48.756;9.246;2022-09-13T05:10:17;11.60;99.90
55648;DHT22;45266;48.756;9.246;2022-09-13T05:11:23;11.60;99.90
55648;DHT22;45266;48.756;9.246;2022-09-13T05:12:34;11.60;99.90
55648;DHT22;45266;48.756;9.246;2022-09-13T05:13:41;11.60;99.90
55648;DHT22;45266;48.756;9.246;2022-09-13T05:14:43;11.60;99.90
55648;DHT22;45266;48.756;9.246;2022-09-13T05:15:55;11.60;99.90
55648;DHT22;45266;48.756;9.246;2022-09-13T05:17:04;11.60;99.90
55648;DHT22;45266;48.756;9.246;2022-09-13T05:18:06;11.60;99.90
55648;DHT22;45266;48.756;9.246;2022-09-13T05:19:13;11.60;99.90
55648;DHT22;45266;48.756;9.246;2022-09-13T05:20:17;11.70;99.90
55648;DHT22;45266;48.756;9.246;2022-09-13T05:21:34;11.70;99.90
55648;DHT22;45266;48.756;9.246;2022-09-13T05:22:41;11.60;99.90
55648;DHT22;45266;48.756;9.246;2022-09-13T05:23:51;11.70;99.90
55648;DHT22;45266;48.756;9.246;2022-09-13T05:24:58;11.70;99.90
55648;DHT22;45266;48.756;9.246;2022-09-13T05:26:15;11.70;99.90
55648;DHT22;45266;48.756;9.246;2022-09-13T05:27:17;11.70;99.90
55648;DHT22;45266;48.756;9.246;2022-09-13T05:28:25;11.70;99.90
55648;DHT22;45266;48.756;9.246;2022-09-13T05:29:35;11.80;99.90
55648;DHT22;45266;48.756;9.246;2022-09-13T05:30:44;11.80;99.90
55648;DHT22;45266;48.756;9.246;2022-09-13T05:32:00;11.80;99.90
55648;DHT22;45266;48.756;9.246;2022-09-13T05:33:05;11.80;99.90
55648;DHT22;45266;48.756;9.246;2022-09-13T05:34:15;11.80;99.90
55648;DHT22;45266;48.756;9.246;2022-09-13T05:35:21;11.80;99.90
55648;DHT22;45266;48.756;9.246;2022-09-13T05:36:26;11.80;99.90
55648;DHT22;45266;48.756;9.246;2022-09-13T05:37:32;11.80;99.90
55648;DHT22;45266;48.756;9.246;2022-09-13T05:38:41;11.80;99.90
55648;DHT22;45266;48.756;9.246;2022-09-13T05:39:48;11.80;99.90
55648;DHT22;45266;48.756;9.246;2022-09-13T05:41:13;11.90;99.90
55648;DHT22;45266;48.756;9.246;2022-09-13T05:42:23;11.90;99.90
55648;DHT22;45266;48.756;9.246;2022-09-13T05:43:32;11.90;99.90
55648;DHT22;45266;48.756;9.246;2022-09-13T05:44:36;11.90;99.90
55648;DHT22;45266;48.756;9.246;2022-09-13T05:45:39;11.90;99.90
55648;DHT22;45266;48.756;9.246;2022-09-13T05:46:49;11.90;99.90
55648;DHT22;45266;48.756;9.246;2022-09-13T05:48:04;11.90;99.90
55648;DHT22;45266;48.756;9.246;2022-09-13T05:49:11;11.90;99.90
55648;DHT22;45266;48.756;9.246;2022-09-13T05:50:16;11.90;99.90
55648;DHT22;45266;48.756;9.246;2022-09-13T05:51:41;11.90;99.90
55648;DHT22;45266;48.756;9.246;2022-09-13T05:52:52;11.90;99.90
55648;DHT22;45266;48.756;9.246;2022-09-13T05:53:55;11.90;99.90
55648;DHT22;45266;48.756;9.246;2022-09-13T05:55:04;11.90;99.90
55648;DHT22;45266;48.756;9.246;2022-09-13T05:56:12;12.00;99.90
55648;DHT22;45266;48.756;9.246;2022-09-13T05:57:22;12.00;99.90
55648;DHT22;45266;48.756;9.246;2022-09-13T05:58:39;11.90;99.90
55648;DHT22;45266;48.756;9.246;2022-09-13T05:59:49;11.90;99.90
55648;DHT22;45266;48.756;9.246;2022-09-13T06:01:03;12.00;99.90
55648;DHT22;45266;48.756;9.246;2022-09-13T06:02:11;12.00;99.90
55648;DHT22;45266;48.756;9.246;2022-09-13T06:03:24;12.00;99.90
55648;DHT22;45266;48.756;9.246;2022-09-13T06:04:34;12.00;99.90
55648;DHT22;45266;48.756;9.246;2022-09-13T06:05:38;12.00;99.90
55648;DHT22;45266;48.756;9.246;2022-09-13T06:06:46;12.10;99.90
55648;DHT22;45266;48.756;9.246;2022-09-13T06:07:51;12.10;99.90
55648;DHT22;45266;48.756;9.246;2022-09-13T06:08:55;12.10;99.90
55648;DHT22;45266;48.756;9.246;2022-09-13T06:10:03;12.10;99.90
55648;DHT22;45266;48.756;9.246;2022-09-13T06:11:08;12.20;99.90
55648;DHT22;45266;48.756;9.246;2022-09-13T06:12:12;12.20;99.90
55648;DHT22;45266;48.756;9.246;2022-09-13T06:13:17;12.20;99.90
55648;DHT22;45266;48.756;9.246;2022-09-13T06:14:27;12.30;99.90
55648;DHT22;45266;48.756;9.246;2022-09-13T06:15:39;12.30;99.90
55648;DHT22;45266;48.756;9.246;2022-09-13T06:16:46;12.40;99.90
55648;DHT22;45266;48.756;9.246;2022-09-13T06:17:48;12.40;99.90
55648;DHT22;45266;48.756;9.246;2022-09-13T06:18:50;12.40;99.90
55648;DHT22;45266;48.756;9.246;2022-09-13T06:19:54;12.50;99.90
55648;DHT22;45266;48.756;9.246;2022-09-13T06:21:03;12.50;99.90
55648;DHT22;45266;48.756;9.246;2022-09-13T06:22:08;12.50;99.90
55648;DHT22;45266;48.756;9.246;2022-09-13T06:23:14;12.60;99.90
55648;DHT22;45266;48.756;9.246;2022-09-13T06:24:21;12.60;99.90
55648;DHT22;45266;48.756;9.246;2022-09-13T06:25:24;12.60;99.90
55648;DHT22;45266;48.756;9.246;2022-09-13T06:26:32;12.70;99.90
55648;DHT22;45266;48.756;9.246;2022-09-13T06:27:39;12.70;99.90
55648;DHT22;45266;48.756;9.246;2022-09-13T06:28:45;12.70;99.90
55648;DHT22;45266;48.756;9.246;2022-09-13T06:29:56;12.80;99.90
55648;DHT22;45266;48.756;9.246;2022-09-13T06:31:09;12.80;99.90
55648;DHT22;45266;48.756;9.246;2022-09-13T06:32:14;12.80;99.90
55648;DHT22;45266;48.756;9.246;2022-09-13T06:33:18;12.90;99.90
55648;DHT22;45266;48.756;9.246;2022-09-13T06:34:21;12.90;99.90
55648;DHT22;45266;48.756;9.246;2022-09-13T06:35:32;12.90;99.90
55648;DHT22;45266;48.756;9.246;2022-09-13T06:36:40;12.90;99.90
55648;DHT22;45266;48.756;9.246;2022-09-13T06:37:43;12.90;99.90
55648;DHT22;45266;48.756;9.246;2022-09-13T06:38:47;12.90;99.90
55648;DHT22;45266;48.756;9.246;2022-09-13T06:39:52;13.00;99.90
55648;DHT22;45266;48.756;9.246;2022-09-13T06:41:11;13.00;99.90
55648;DHT22;45266;48.756;9.246;2022-09-13T06:42:23;13.00;99.90
55648;DHT22;45266;48.756;9.246;2022-09-13T06:43:27;13.00;99.90
55648;DHT22;45266;48.756;9.246;2022-09-13T06:44:33;13.00;99.90
55648;DHT22;45266;48.756;9.246;2022-09-13T06:45:44;13.00;99.90
55648;DHT22;45266;48.756;9.246;2022-09-13T06:46:49;13.10;99.90
55648;DHT22;45266;48.756;9.246;2022-09-13T06:48:00;13.10;99.90
55648;DHT22;45266;48.756;9.246;2022-09-13T06:49:04;13.10;99.90
55648;DHT22;45266;48.756;9.246;2022-09-13T06:50:17;13.20;99.90
55648;DHT22;45266;48.756;9.246;2022-09-13T06:51:24;13.20;99.90
55648;DHT22;45266;48.756;9.246;2022-09-13T06:52:27;13.20;99.90
55648;DHT22;45266;48.756;9.246;2022-09-13T06:53:29;13.30;99.90
55648;DHT22;45266;48.756;9.246;2022-09-13T06:54:37;13.30;99.90
55648;DHT22;45266;48.756;9.246;2022-09-13T06:55:48;13.40;99.90
55648;DHT22;45266;48.756;9.246;2022-09-13T06:56:53;13.40;99.90
55648;DHT22;45266;48.756;9.246;2022-09-13T06:57:55;13.50;99.90
55648;DHT22;45266;48.756;9.246;2022-09-13T06:59:04;13.50;99.90
55648;DHT22;45266;48.756;9.246;2022-09-13T07:00:07;13.60;99.90
55648;DHT22;45266;48.756;9.246;2022-09-13T07:01:17;13.70;99.90
55648;DHT22;45266;48.756;9.246;2022-09-13T07:02:20;13.70;99.90
55648;DHT22;45266;48.756;9.246;2022-09-13T07:03:22;13.80;99.90
55648;DHT22;45266;48.756;9.246;2022-09-13T07:04:27;13.80;99.90
55648;DHT22;45266;48.756;9.246;2022-09-13T07:05:37;13.90;99.90
55648;DHT22;45266;48.756;9.246;2022-09-13T07:06:44;14.00;99.90
55648;DHT22;45266;48.756;9.246;2022-09-13T07:07:50;14.00;99.90
55648;DHT22;45266;48.756;9.246;2022-09-13T07:08:52;14.10;99.90
55648;DHT22;45266;48.756;9.246;2022-09-13T07:09:57;14.10;99.90
55648;DHT22;45266;48.756;9.246;2022-09-13T07:11:02;14.10;99.90
55648;DHT22;45266;48.756;9.246;2022-09-13T07:12:12;14.30;99.90
55648;DHT22;45266;48.756;9.246;2022-09-13T07:13:20;14.40;99.90
55648;DHT22;45266;48.756;9.246;2022-09-13T07:14:24;14.50;99.90
55648;DHT22;45266;48.756;9.246;2022-09-13T07:15:30;14.60;99.90
55648;DHT22;45266;48.756;9.246;2022-09-13T07:16:35;14.60;99.90
55648;DHT22;45266;48.756;9.246;2022-09-13T07:17:48;14.70;99.90
55648;DHT22;45266;48.756;9.246;2022-09-13T07:18:59;14.80;99.90
55648;DHT22;45266;48.756;9.246;2022-09-13T07:20:22;14.90;99.90
55648;DHT22;45266;48.756;9.246;2022-09-13T07:21:25;15.00;99.90
55648;DHT22;45266;48.756;9.246;2022-09-13T07:22:30;15.10;99.90
55648;DHT22;45266;48.756;9.246;2022-09-13T07:23:38;15.10;99.90
55648;DHT22;45266;48.756;9.246;2022-09-13T07:24:48;15.20;99.90
55648;DHT22;45266;48.756;9.246;2022-09-13T07:25:58;15.20;99.90
55648;DHT22;45266;48.756;9.246;2022-09-13T07:27:07;15.20;99.90
55648;DHT22;45266;48.756;9.246;2022-09-13T07:28:14;15.30;99.90
55648;DHT22;45266;48.756;9.246;2022-09-13T07:29:22;15.30;99.90
55648;DHT22;45266;48.756;9.246;2022-09-13T07:30:27;15.30;99.90
55648;DHT22;45266;48.756;9.246;2022-09-13T07:31:40;15.30;99.90
55648;DHT22;45266;48.756;9.246;2022-09-13T07:32:47;15.40;99.90
55648;DHT22;45266;48.756;9.246;2022-09-13T07:33:57;15.40;99.90
55648;DHT22;45266;48.756;9.246;2022-09-13T07:35:02;15.30;99.90
55648;DHT22;45266;48.756;9.246;2022-09-13T07:36:06;15.40;99.90
55648;DHT22;45266;48.756;9.246;2022-09-13T07:37:28;15.30;99.90
55648;DHT22;45266;48.756;9.246;2022-09-13T07:38:40;15.40;99.90
55648;DHT22;45266;48.756;9.246;2022-09-13T07:39:47;15.40;99.90
55648;DHT22;45266;48.756;9.246;2022-09-13T07:41:00;15.40;99.90
55648;DHT22;45266;48.756;9.246;2022-09-13T07:42:18;15.50;99.90
55648;DHT22;45266;48.756;9.246;2022-09-13T07:43:23;15.50;99.90
55648;DHT22;45266;48.756;9.246;2022-09-13T07:44:25;15.60;99.90
55648;DHT22;45266;48.756;9.246;2022-09-13T07:45:43;15.70;99.90
55648;DHT22;45266;48.756;9.246;2022-09-13T07:46:47;15.70;99.90
55648;DHT22;45266;48.756;9.246;2022-09-13T07:47:59;15.80;99.90
55648;DHT22;45266;48.756;9.246;2022-09-13T07:49:01;15.90;99.90
55648;DHT22;45266;48.756;9.246;2022-09-13T07:50:13;15.90;99.90
55648;DHT22;45266;48.756;9.246;2022-09-13T07:51:19;16.00;99.90